Time;durP1;ratioP1;P1;durP2;ratioP2;P2;SDS_P1;SDS_P2;PMS_P1;PMS_P2;Temp;Humidity;BMP_temperature;BMP_pressure;BME280_temperature;BME280_humidity;BME280_pressure;Samples;Min_cycle;Max_cycle;Signal;HPM_P1;HPM_P2
2022/04/01 00:26:29;;;;;;;3.50;2.50;;;;;;;5.95;83.35;97054.20;105049;1270;62046;-22
2022/04/01 00:29:00;;;;;;;5.20;3.40;;;;;;;5.77;83.86;97051.06;104966;1271;62338;-22
2022/04/01 00:31:29;;;;;;;2.90;2.00;;;;;;;5.65;84.76;97049.41;104814;1271;75314;-22
2022/04/01 00:34:15;;;;;;;3.50;2.40;;;;;;;6.13;83.56;97046.02;104965;1271;75973;-22
2022/04/01 00:36:47;;;;;;;3.40;2.50;;;;;;;6.17;82.42;97043.21;104913;1271;73304;-22
2022/04/01 00:39:18;;;;;;;4.40;3.00;;;;;;;6.02;83.13;97040.50;104742;1271;61163;-22
2022/04/01 00:41:49;;;;;;;4.00;2.90;;;;;;;5.93;83.17;97041.68;104904;1271;61209;-22
2022/04/01 00:44:29;;;;;;;2.50;1.70;;;;;;;5.56;85.20;97045.39;104807;1271;75509;-22
2022/04/01 00:47:01;;;;;;;4.10;2.60;;;;;;;6.01;83.53;97040.27;104723;1271;76088;-22
2022/04/01 00:49:31;;;;;;;4.10;2.60;;;;;;;6.29;82.09;97040.52;104606;1271;73403;-22
2022/04/01 00:52:02;;;;;;;3.30;2.00;;;;;;;6.11;82.71;97034.18;104858;1271;61154;-22
2022/04/01 00:54:35;;;;;;;4.50;3.00;;;;;;;5.99;82.74;97035.97;104768;1271;61013;-22
2022/04/01 00:57:05;;;;;;;5.60;3.00;;;;;;;5.73;83.89;97035.80;104966;1271;75211;-22
2022/04/01 00:59:34;;;;;;;4.10;3.00;;;;;;;5.55;85.30;97036.01;104884;1271;75943;-22
2022/04/01 01:02:04;;;;;;;4.40;2.60;;;;;;;6.02;83.45;97035.98;104766;1271;73370;-22
2022/04/01 01:04:41;;;;;;;4.90;3.30;;;;;;;6.17;82.69;97029.51;104811;1271;61128;-22
2022/04/01 01:07:10;;;;;;;6.00;3.20;;;;;;;6.00;82.77;97028.65;105007;1271;61215;-22
2022/04/01 01:09:42;;;;;;;4.60;3.00;;;;;;;5.74;83.89;97023.25;105141;1270;76403;-22
2022/04/01 01:12:11;;;;;;;5.70;3.40;;;;;;;5.63;84.76;97029.82;105033;1271;75879;-22
2022/04/01 01:14:41;;;;;;;4.00;2.60;;;;;;;5.72;85.00;97026.25;104877;1271;74282;-22
2022/04/01 01:17:12;;;;;;;11.30;7.40;;;;;;;6.12;82.73;97022.20;104729;1271;61042;-22
2022/04/01 01:19:45;;;;;;;7.80;5.20;;;;;;;6.02;83.16;97017.61;104688;1271;61051;-22
2022/04/01 01:22:16;;;;;;;5.70;3.10;;;;;;;5.53;85.27;97017.62;104884;1271;75391;-22
2022/04/01 01:24:45;;;;;;;4.60;3.10;;;;;;;5.31;86.30;97011.55;105058;1271;75986;-22
2022/04/01 01:27:14;;;;;;;7.00;4.20;;;;;;;5.59;86.08;97005.17;105009;1270;74385;-22
2022/04/01 01:29:45;;;;;;;4.70;3.50;;;;;;;5.95;83.88;97004.30;104919;1271;61997;-22
2022/04/01 01:32:17;;;;;;;5.50;3.30;;;;;;;5.86;84.12;97002.66;104992;1271;62100;-22
2022/04/01 01:34:46;;;;;;;7.40;3.60;;;;;;;5.76;84.60;96999.48;104765;1270;73921;-23
2022/04/01 01:37:15;;;;;;;6.10;4.30;;;;;;;5.51;85.47;96997.98;104990;1270;76101;-22
2022/04/01 01:39:44;;;;;;;6.60;3.40;;;;;;;5.66;85.62;96998.39;104920;1271;74254;-22
2022/04/01 01:42:13;;;;;;;5.10;3.60;;;;;;;5.87;84.43;96996.92;104923;1271;61231;-22
2022/04/01 01:44:43;;;;;;;4.60;3.30;;;;;;;6.05;83.27;96992.33;104766;1271;61805;-22
2022/04/01 01:47:12;;;;;;;4.80;3.60;;;;;;;5.71;84.48;96989.97;104971;1271;75330;-23
2022/04/01 01:55:21;;;;;;;6.60;3.80;;;;;;;6.02;83.96;96990.76;105121;1271;61066;-22
2022/04/01 01:57:51;;;;;;;8.30;3.90;;;;;;;6.01;83.24;96992.04;104824;1271;62163;-22
2022/04/01 02:00:22;;;;;;;4.80;3.10;;;;;;;5.88;83.50;96988.59;105101;1271;75565;-22
2022/04/01 02:02:51;;;;;;;4.40;2.70;;;;;;;5.51;85.24;96989.75;105068;1271;75999;-22
2022/04/01 02:05:20;;;;;;;2.90;2.40;;;;;;;5.83;84.59;96984.94;104865;1271;73330;-22
2022/04/01 02:07:53;;;;;;;5.90;4.30;;;;;;;6.00;83.28;96986.92;104945;1271;61016;-22
2022/04/01 02:10:42;;;;;;;4.50;3.40;;;;;;;5.91;83.53;96981.63;104844;1270;62958;-22
2022/04/01 02:13:12;;;;;;;4.30;3.20;;;;;;;5.81;83.94;96978.52;104902;1271;75625;-22
2022/04/01 02:15:42;;;;;;;4.90;2.90;;;;;;;5.50;85.26;96974.55;104959;1271;75217;-22
2022/04/01 02:18:12;;;;;;;3.40;2.70;;;;;;;5.84;84.43;96973.95;105287;1271;73311;-22
2022/04/01 02:20:42;;;;;;;5.40;4.00;;;;;;;6.09;82.97;96970.42;105172;1271;61982;-22
2022/04/01 02:23:11;;;;;;;3.90;3.20;;;;;;;5.83;84.03;96968.76;105177;1271;61153;-22
2022/04/01 02:25:42;;;;;;;5.00;4.00;;;;;;;5.59;85.22;96963.35;105190;1271;75797;-22
2022/04/01 02:28:14;;;;;;;3.60;2.60;;;;;;;5.55;85.33;96958.45;104884;1271;76069;-22
2022/04/01 02:30:47;;;;;;;3.30;2.40;;;;;;;5.79;84.51;96959.12;104533;1271;469684;-22
2022/04/01 02:33:37;;;;;;;3.80;2.80;;;;;;;6.16;82.73;96954.98;104950;1269;61019;-23
2022/04/01 02:36:12;;;;;;;3.50;2.70;;;;;;;6.14;82.49;96947.34;104964;1271;61143;-22
2022/04/01 02:38:41;;;;;;;;;;;;;;;5.99;82.76;96943.96;104755;1271;75839;-22
2022/04/01 02:41:14;;;;;;;4.80;2.70;;;;;;;5.59;84.64;96940.34;104892;1271;76979;-22
2022/04/01 02:43:43;;;;;;;11.40;5.00;;;;;;;5.91;84.08;96936.97;104907;1271;74393;-22
2022/04/01 02:46:13;;;;;;;4.30;2.70;;;;;;;6.15;83.08;96937.23;104939;1271;61412;-22
2022/04/01 02:48:53;;;;;;;4.30;2.70;;;;;;;6.16;82.14;96929.48;105254;1271;62073;-22
2022/04/01 02:51:39;;;;;;;3.90;2.60;;;;;;;5.81;83.81;96926.50;104909;1271;74391;-22
2022/04/01 02:54:20;;;;;;;4.20;2.30;;;;;;;5.73;83.86;96924.19;104866;1271;75789;-22
2022/04/01 02:56:51;;;;;;;;;;;;;;;5.87;84.29;96918.63;104958;1270;74420;-22
2022/04/01 02:59:21;;;;;;;1.80;1.50;;;;;;;6.17;82.45;96920.55;104884;1271;61879;-22
2022/04/01 03:01:51;;;;;;;2.40;2.00;;;;;;;6.13;81.99;96917.46;104990;1271;61816;-22
2022/04/01 03:04:21;;;;;;;3.40;2.60;;;;;;;5.95;82.66;96918.34;104837;1270;74480;-23
2022/04/01 03:06:53;;;;;;;2.60;2.00;;;;;;;5.77;83.61;96912.81;104931;1271;76503;-22
2022/04/01 03:09:24;;;;;;;2.90;2.30;;;;;;;5.53;84.51;96908.35;105118;1271;73347;-22
2022/04/01 03:12:07;;;;;;;2.70;1.80;;;;;;;5.89;84.14;96911.02;105154;1271;62074;-22
2022/04/01 03:15:02;;;;;;;6.40;4.40;;;;;;;6.16;82.21;96910.46;104688;1271;61155;-22
2022/04/01 03:17:51;;;;;;;5.30;3.50;;;;;;;5.82;83.66;96907.30;104945;1270;74331;-22
2022/04/01 03:20:29;;;;;;;5.50;4.50;;;;;;;5.55;84.76;96901.09;104918;1271;76035;-23
2022/04/01 03:23:15;;;;;;;4.20;2.80;;;;;;;5.54;85.09;96904.52;104871;1271;74383;-23
2022/04/01 03:26:04;;;;;;;3.10;2.30;;;;;;;5.62;85.01;96902.73;104888;1270;61818;-23
2022/04/01 03:28:56;;;;;;;4.20;2.80;;;;;;;6.05;83.63;96904.48;105027;1268;61958;-23
2022/04/01 03:31:28;;;;;;;3.90;2.50;;;;;;;5.82;83.56;96897.20;104952;1271;75364;-22
2022/04/01 03:33:58;;;;;;;8.00;4.80;;;;;;;5.63;84.38;96899.16;104992;1271;75015;-22
2022/04/01 03:36:27;;;;;;;4.20;2.90;;;;;;;5.29;85.59;96894.23;104929;1271;74488;-22
2022/04/01 03:38:58;;;;;;;3.30;2.00;;;;;;;5.36;86.32;96892.10;104916;1271;61289;-22
2022/04/01 03:41:34;;;;;;;2.50;1.50;;;;;;;5.86;83.94;96894.58;104750;1271;61092;-22
2022/04/01 03:44:05;;;;;;;1.30;1.10;;;;;;;5.85;83.68;96894.97;104972;1271;74568;-22
2022/04/01 03:46:50;;;;;;;2.50;1.90;;;;;;;5.66;84.01;96894.77;104829;1271;75820;-22
2022/04/01 03:49:24;;;;;;;2.10;1.60;;;;;;;5.37;85.46;96885.27;104697;1271;74329;-22
2022/04/01 03:51:55;;;;;;;2.00;1.30;;;;;;;5.56;85.43;96890.34;104855;1271;61388;-22
2022/04/01 03:56:02;;;;;;;2.60;2.00;;;;;;;6.05;83.00;96888.27;102016;1306;600722;-22
2022/04/01 03:59:12;;;;;;;3.90;2.50;;;;;;;5.80;83.78;96884.66;104815;1274;61864;-22
2022/04/01 04:02:01;;;;;;;2.40;1.50;;;;;;;5.42;85.28;96883.42;105073;1274;61884;-22
2022/04/01 04:04:34;;;;;;;3.90;1.80;;;;;;;5.31;86.31;96885.98;105111;1274;73823;-21
2022/04/01 04:07:08;;;;;;;4.50;2.00;;;;;;;5.89;84.48;96888.58;104749;1274;76039;-22
2022/04/01 04:09:55;;;;;;;3.90;2.00;;;;;;;5.90;83.65;96890.85;104580;1271;526918;-22
2022/04/01 04:12:26;;;;;;;3.00;1.70;;;;;;;5.90;83.64;96889.23;105136;1270;61982;-21
2022/04/01 04:15:08;;;;;;;3.10;1.80;;;;;;;5.74;83.87;96887.61;105143;1271;61262;-22
2022/04/01 04:17:39;;;;;;;3.50;2.20;;;;;;;5.46;85.17;96884.91;105122;1271;73679;-22
2022/04/01 04:20:18;;;;;;;4.70;3.10;;;;;;;5.81;84.45;96882.69;105163;1271;75779;-21
2022/04/01 04:23:01;;;;;;;3.90;1.80;;;;;;;6.07;82.93;96881.91;105129;1271;74466;-22
2022/04/01 04:25:35;;;;;;;4.60;2.30;;;;;;;5.89;83.65;96882.00;105133;1271;61064;-22
2022/04/01 04:32:56;;;;;;;3.30;2.10;;;;;;;5.41;86.13;96872.52;105214;1271;71855;-22
2022/04/01 04:35:28;;;;;;;1.90;1.40;;;;;;;6.14;83.37;96880.39;105134;1271;74651;-22
2022/04/01 04:37:58;;;;;;;3.10;1.70;;;;;;;6.54;81.18;96882.84;104996;1271;74411;-22
2022/04/01 04:40:28;;;;;;;5.00;2.70;;;;;;;6.24;81.86;96885.90;105112;1271;62284;-22
2022/04/01 04:43:07;;;;;;;4.00;2.40;;;;;;;6.05;82.74;96885.54;105127;1274;61130;-21
2022/04/01 04:45:38;;;;;;;3.00;1.80;;;;;;;5.80;83.69;96877.06;104880;1274;74709;-22
2022/04/01 04:48:08;;;;;;;6.40;3.00;;;;;;;5.67;84.28;96875.70;105121;1271;74964;-21
2022/04/01 04:50:43;;;;;;;;;;;;;;;5.95;83.90;96878.72;104993;1271;75111;-22
2022/04/01 04:53:13;;;;;;;4.70;3.20;;;;;;;5.80;84.36;96876.88;105112;1271;62089;-22
2022/04/01 04:55:47;;;;;;;3.80;2.70;;;;;;;6.12;82.88;96878.69;104910;1274;62168;-21
2022/04/01 04:58:21;;;;;;;3.70;2.60;;;;;;;5.92;83.30;96883.32;104761;1274;74822;-22
2022/04/01 05:01:02;;;;;;;2.80;2.00;;;;;;;5.81;83.73;96884.70;104928;1274;75804;-23
2022/04/01 05:03:47;;;;;;;3.30;2.60;;;;;;;6.17;82.90;96884.40;104770;1274;74479;-22
2022/04/01 05:06:17;;;;;;;3.80;2.30;;;;;;;6.55;81.20;96884.45;104964;1274;61109;-22
2022/04/01 05:09:19;;;;;;;5.50;3.00;;;;;;;6.34;81.45;96880.67;104737;1274;62294;-22
2022/04/01 05:12:01;;;;;;;3.70;2.10;;;;;;;6.06;82.60;96875.05;105103;1274;76219;-22
2022/04/01 05:15:08;;;;;;;2.20;1.10;;;;;;;5.75;84.26;96871.29;104890;1274;77843;-22
2022/04/01 05:17:38;;;;;;;3.80;2.70;;;;;;;5.71;85.39;96871.20;105053;1273;74206;-24
2022/04/01 05:20:15;;;;;;;9.40;6.40;;;;;;;6.43;82.40;96872.36;104587;1274;60980;-23
2022/04/01 05:23:20;;;;;;;3.80;2.50;;;;;;;6.46;81.32;96871.92;104957;1271;62147;-21
2022/04/01 05:25:58;;;;;;;4.40;2.00;;;;;;;6.34;81.73;96872.18;104872;1274;74655;-21
2022/04/01 05:29:00;;;;;;;4.80;3.30;;;;;;;5.90;83.66;96871.66;104668;1274;76106;-22
2022/04/01 05:32:10;;;;;;;3.90;2.70;;;;;;;5.76;84.63;96867.45;104813;1274;74221;-23
2022/04/01 05:34:57;;;;;;;4.80;3.10;;;;;;;6.36;82.56;96868.05;104961;1271;61129;-26
2022/04/01 05:37:29;;;;;;;6.80;3.10;;;;;;;6.45;81.74;96871.01;104893;1274;62009;-24
2022/04/01 05:39:58;;;;;;;3.10;2.10;;;;;;;6.46;81.65;96870.73;104708;1274;75164;-22
2022/04/01 05:42:43;;;;;;;4.30;2.80;;;;;;;6.28;81.86;96869.23;104989;1274;75856;-22
2022/04/01 05:45:33;;;;;;;3.00;1.70;;;;;;;5.98;83.62;96864.64;104540;1274;73888;-22
2022/04/01 05:48:12;;;;;;;2.90;1.80;;;;;;;6.24;83.10;96861.83;105045;1273;61077;-24
2022/04/01 05:50:43;;;;;;;4.70;1.90;;;;;;;6.65;81.45;96859.45;104881;1274;61089;-22
2022/04/01 05:53:12;;;;;;;3.00;1.70;;;;;;;6.54;81.33;96858.52;104802;1274;73729;-24
2022/04/01 05:55:48;;;;;;;2.20;1.40;;;;;;;6.23;82.04;96856.95;105066;1274;74473;-23
2022/04/01 05:58:18;;;;;;;14.40;9.10;;;;;;;5.98;83.85;96863.79;104825;1274;74422;-23
2022/04/01 06:01:16;;;;;;;5.00;2.10;;;;;;;5.98;84.11;96866.53;105112;1274;63292;-23
2022/04/01 06:04:16;;;;;;;5.40;2.80;;;;;;;6.55;82.30;96866.55;105147;1271;61874;-24
2022/04/01 06:06:46;;;;;;;6.60;2.60;;;;;;;6.91;80.86;96873.67;104932;1274;72615;-23
2022/04/01 06:09:47;;;;;;;5.00;3.50;;;;;;;6.63;80.96;96866.04;104927;1274;76027;-23
2022/04/01 06:12:58;;;;;;;7.20;3.80;;;;;;;6.31;82.41;96861.11;105104;1274;73424;-23
2022/04/01 06:16:23;;;;;;;7.90;6.00;;;;;;;6.07;83.53;96866.23;104463;1279;61332;-24
2022/04/01 06:19:11;;;;;;;4.10;2.70;;;;;;;6.18;83.84;96868.63;105076;1274;62073;-23
2022/04/01 06:21:50;;;;;;;4.90;2.80;;;;;;;6.74;81.34;96871.75;105120;1273;74263;-23
2022/04/01 06:24:41;;;;;;;2.80;1.90;;;;;;;6.65;80.72;96870.57;104931;1274;75864;-24
2022/04/01 06:27:19;;;;;;;4.50;2.60;;;;;;;6.26;82.12;96867.46;104859;1274;74445;-23
2022/04/01 06:30:05;;;;;;;3.50;2.30;;;;;;;5.73;84.30;96864.48;104707;1274;61180;-22
2022/04/01 06:32:50;;;;;;;3.50;2.40;;;;;;;5.91;84.20;96861.32;104673;1274;61788;-23
2022/04/01 06:35:28;;;;;;;4.20;2.10;;;;;;;6.50;81.97;96864.09;104731;1274;74548;-23
2022/04/01 06:38:13;;;;;;;3.70;2.10;;;;;;;6.62;80.84;96861.90;104818;1274;76812;-23
2022/04/01 06:41:15;;;;;;;2.30;1.80;;;;;;;6.29;81.74;96864.80;104679;1274;74468;-23
2022/04/01 06:43:54;;;;;;;3.20;2.00;;;;;;;6.10;82.50;96865.07;104699;1271;61018;-23
2022/04/01 06:46:53;;;;;;;2.40;1.20;;;;;;;5.98;83.33;96863.30;104311;1275;61998;-23
2022/04/01 06:49:25;;;;;;;2.50;1.60;;;;;;;6.34;81.79;96860.53;104895;1274;74996;-24
2022/04/01 06:52:14;;;;;;;2.50;1.70;;;;;;;6.43;81.17;96866.54;105116;1271;76063;-23
2022/04/01 06:54:54;;;;;;;2.10;1.20;;;;;;;6.31;81.69;96869.27;105123;1274;74415;-23
2022/04/01 06:57:42;;;;;;;4.90;3.00;;;;;;;6.02;82.78;96869.45;104873;1271;62223;-23
2022/04/01 07:00:19;;;;;;;7.00;3.50;;;;;;;6.05;83.58;96867.45;104885;1274;61176;-23
2022/04/01 07:02:49;;;;;;;9.40;4.00;;;;;;;6.50;82.01;96863.77;104828;1272;74729;-23
2022/04/01 07:05:18;;;;;;;3.80;2.20;;;;;;;6.56;81.43;96863.87;105148;1271;76191;-22
2022/04/01 07:07:57;;;;;;;2.30;1.50;;;;;;;6.44;81.70;96865.55;105063;1274;73391;-24
2022/04/01 07:10:26;;;;;;;2.50;1.60;;;;;;;6.34;81.83;96863.92;104848;1274;60939;-21
2022/04/01 07:12:56;;;;;;;2.70;1.70;;;;;;;6.06;83.12;96863.20;104733;1274;61541;-23
2022/04/01 07:15:26;;;;;;;14.50;9.30;;;;;;;6.37;82.79;96855.88;104821;1272;75145;-23
2022/04/01 07:17:56;;;;;;;7.50;4.50;;;;;;;6.66;81.34;96853.88;104754;1271;75191;-23
2022/04/01 07:20:25;;;;;;;3.20;2.20;;;;;;;6.46;81.57;96847.03;104822;1271;74441;-23
2022/04/01 07:22:54;;;;;;;2.30;1.50;;;;;;;6.18;82.90;96845.38;104777;1274;62341;-23
2022/04/01 07:25:24;;;;;;;2.60;1.80;;;;;;;6.09;83.82;96848.47;104771;1274;61832;-23
2022/04/01 07:27:54;;;;;;;1.20;0.90;;;;;;;6.09;84.29;96851.27;104782;1272;73850;-23
2022/04/01 07:30:25;;;;;;;2.00;1.50;;;;;;;6.59;82.49;96848.37;104713;1272;75891;-23
2022/04/01 07:32:57;;;;;;;2.80;1.70;;;;;;;6.85;81.19;96849.96;104711;1271;74296;-23
2022/04/01 07:35:29;;;;;;;2.50;1.80;;;;;;;6.67;81.88;96855.84;104677;1274;61144;-23
2022/04/01 07:37:58;;;;;;;6.40;3.20;;;;;;;6.58;82.65;96862.08;104817;1272;61211;-23
2022/04/01 07:40:44;;;;;;;1.70;1.30;;;;;;;6.37;82.99;96865.89;104787;1271;74044;-23
2022/04/01 07:43:14;;;;;;;2.20;1.50;;;;;;;6.55;82.82;96873.08;104972;1271;76408;-23
2022/04/01 07:46:01;;;;;;;1.60;1.10;;;;;;;6.97;81.20;96877.39;104841;1273;74132;-25
2022/04/01 07:48:47;;;;;;;3.40;2.00;;;;;;;6.89;80.71;96883.36;104863;1274;61134;-25
2022/04/01 07:51:16;;;;;;;3.50;2.00;;;;;;;6.78;81.29;96888.58;104800;1274;61786;-24
2022/04/01 07:53:45;;;;;;;6.00;2.30;;;;;;;6.62;82.12;96887.70;104750;1272;74156;-23
2022/04/01 07:56:15;;;;;;;1.80;1.10;;;;;;;6.28;83.72;96887.10;105115;1271;75891;-23
2022/04/01 07:59:01;;;;;;;5.50;2.60;;;;;;;7.08;81.18;96889.02;104860;1271;71421;-22
2022/04/01 08:01:31;;;;;;;3.10;1.70;;;;;;;7.01;80.28;96884.90;104797;1271;61092;-22
2022/04/01 08:04:18;;;;;;;5.40;2.30;;;;;;;7.23;79.91;96881.69;105053;1271;61586;-23
2022/04/01 08:06:53;;;;;;;6.10;2.90;;;;;;;7.00;80.93;96885.73;104687;1271;72718;-23
2022/04/01 08:09:38;;;;;;;9.70;4.80;;;;;;;6.55;82.62;96880.84;104730;1271;76204;-23
2022/04/01 08:12:08;;;;;;;3.60;1.80;;;;;;;6.35;83.37;96885.73;104933;1271;74544;-22
2022/04/01 08:14:55;;;;;;;3.70;2.10;;;;;;;7.04;81.88;96888.39;104882;1271;61832;-23
2022/04/01 08:17:24;;;;;;;5.80;3.90;;;;;;;7.12;80.55;96885.34;104962;1271;62015;-23
2022/04/01 08:20:12;;;;;;;4.90;3.40;;;;;;;7.39;80.21;96887.59;105088;1271;74571;-23
2022/04/01 08:23:02;;;;;;;5.00;2.50;;;;;;;7.24;80.57;96881.39;105068;1271;73132;-23
2022/04/01 08:25:31;;;;;;;4.30;2.40;;;;;;;6.56;82.85;96877.65;105086;1271;74263;-23
2022/04/01 08:28:05;;;;;;;6.40;4.60;;;;;;;6.37;83.95;96881.39;105100;1271;62747;-23
2022/04/01 08:30:39;;;;;;;4.50;1.90;;;;;;;6.90;82.90;96882.75;105091;1271;61120;-23
2022/04/01 08:33:08;;;;;;;3.90;1.60;;;;;;;7.34;80.09;96892.75;105087;1272;74515;-23
2022/04/01 08:35:56;;;;;;;3.60;2.10;;;;;;;7.17;80.50;96893.15;105101;1270;75840;-23
2022/04/01 08:38:25;;;;;;;3.00;1.90;;;;;;;7.26;80.43;96895.66;105137;1271;74448;-23
2022/04/01 08:40:55;;;;;;;15.30;9.50;;;;;;;6.82;82.06;96893.16;105109;1271;61159;-23
2022/04/01 08:43:32;;;;;;;4.10;2.60;;;;;;;6.50;84.01;96887.40;105152;1271;61248;-23
2022/04/01 08:46:19;;;;;;;32.00;15.90;;;;;;;7.14;81.99;96890.18;104856;1271;75339;-23
2022/04/01 08:48:48;;;;;;;23.60;12.10;;;;;;;7.19;81.24;96887.59;104715;1271;74988;-23
2022/04/01 08:51:17;;;;;;;27.20;15.30;;;;;;;7.39;81.46;96883.35;104757;1272;74391;-23
2022/04/01 08:53:47;;;;;;;38.60;25.20;;;;;;;7.56;81.29;96887.81;104906;1271;61176;-23
2022/04/01 08:56:21;;;;;;;16.40;8.50;;;;;;;7.59;80.51;96888.98;104699;1271;61198;-23
2022/04/01 08:59:07;;;;;;;4.70;2.80;;;;;;;7.27;80.75;96888.96;105093;1271;72840;-23
2022/04/01 09:02:01;;;;;;;21.50;11.10;;;;;;;7.69;80.06;96885.21;105080;1271;74128;-23
2022/04/01 09:04:31;;;;;;;12.30;6.30;;;;;;;8.05;78.90;96885.23;104884;1272;74436;-23
2022/04/01 09:07:13;;;;;;;19.10;8.10;;;;;;;7.36;80.70;96879.95;104794;1272;61873;-23
2022/04/01 09:10:01;;;;;;;26.80;18.20;;;;;;;7.18;82.77;96880.30;104824;1271;61778;-25
2022/04/01 09:12:49;;;;;;;10.10;7.10;;;;;;;6.73;84.04;96878.69;104762;1271;75359;-23
2022/04/01 09:15:19;;;;;;;23.50;12.70;;;;;;;7.08;82.77;96886.41;104794;1271;75467;-23
2022/04/01 09:18:05;;;;;;;21.60;15.10;;;;;;;7.51;81.59;96892.15;105173;1271;74185;-23
2022/04/01 09:20:48;;;;;;;16.80;9.50;;;;;;;7.61;81.21;96889.21;105114;1271;61041;-23
2022/04/01 09:23:38;;;;;;;11.20;5.30;;;;;;;7.50;80.59;96882.30;105030;1271;63016;-26
2022/04/01 09:26:07;;;;;;;13.50;6.80;;;;;;;7.20;81.74;96878.72;104805;1271;75494;-23
2022/04/01 09:28:41;;;;;;;16.20;9.40;;;;;;;6.90;83.46;96879.48;104574;1271;76333;-25
2022/04/01 09:31:12;;;;;;;60.90;52.70;;;;;;;6.95;83.00;96878.05;104999;1271;74225;-23
2022/04/01 09:34:18;;;;;;;32.50;23.00;;;;;;;7.21;82.95;96884.46;105078;1271;61449;-24
2022/04/01 09:36:49;;;;;;;23.60;13.90;;;;;;;6.64;84.12;96884.60;105113;1271;62266;-24
2022/04/01 09:39:35;;;;;;;23.70;16.00;;;;;;;6.45;85.64;96880.80;105085;1271;75389;-24
2022/04/01 09:42:11;;;;;;;14.60;8.20;;;;;;;6.37;86.24;96883.14;104729;1274;74636;-23
2022/04/01 09:44:43;;;;;;;12.10;4.50;;;;;;;6.97;84.79;96888.23;104864;1272;74321;-24
2022/04/01 09:47:13;;;;;;;6.80;4.20;;;;;;;7.79;80.31;96882.83;104802;1271;61248;-24
2022/04/01 09:49:44;;;;;;;10.20;5.10;;;;;;;7.73;80.26;96882.02;104703;1271;62039;-24
2022/04/01 09:52:36;;;;;;;6.10;3.40;;;;;;;7.65;80.47;96886.92;104778;1271;72745;-24
2022/04/01 09:55:22;;;;;;;6.00;3.70;;;;;;;7.48;80.59;96887.91;104722;1271;73253;-25
2022/04/01 09:57:52;;;;;;;4.80;2.50;;;;;;;7.40;81.42;96889.63;104956;1271;74575;-25
2022/04/01 10:00:22;;;;;;;4.70;3.00;;;;;;;7.98;79.90;96890.55;104796;1272;61096;-25
2022/04/01 10:02:53;;;;;;;19.30;13.00;;;;;;;8.24;78.35;96892.85;104768;1272;61134;-25
2022/04/01 10:05:22;;;;;;;28.50;24.30;;;;;;;7.71;80.11;96893.90;104847;1271;75542;-24
2022/04/01 10:07:53;;;;;;;10.30;7.10;;;;;;;7.96;80.20;96897.80;105149;1271;76277;-26
2022/04/01 10:10:40;;;;;;;7.40;4.40;;;;;;;7.87;79.50;96899.08;104771;1271;71482;-25
2022/04/01 10:13:30;;;;;;;4.60;3.30;;;;;;;7.81;79.08;96901.43;104574;1272;61239;-25
2022/04/01 10:16:18;;;;;;;12.50;7.20;;;;;;;7.43;81.11;96903.42;104873;1271;61129;-25
2022/04/01 10:19:14;;;;;;;11.60;6.00;;;;;;;7.48;82.18;96903.10;104981;1271;75308;-25
2022/04/01 10:21:44;;;;;;;15.00;8.10;;;;;;;8.19;79.90;96906.49;105116;1271;75135;-25
2022/04/01 10:24:14;;;;;;;7.30;4.20;;;;;;;8.26;78.66;96906.98;105103;1271;74861;-25
2022/04/01 10:27:03;;;;;;;9.20;5.60;;;;;;;7.71;79.38;96912.71;105112;1271;61156;-26
2022/04/01 10:29:36;;;;;;;14.30;4.30;;;;;;;7.64;80.60;96913.86;104814;1272;61153;-24
2022/04/01 10:32:42;;;;;;;11.00;5.00;;;;;;;8.00;79.85;96914.70;105158;1274;75459;-24
2022/04/01 10:35:33;;;;;;;13.60;8.80;;;;;;;8.32;78.41;96913.27;104556;1277;75229;-26
2022/04/01 10:38:05;;;;;;;9.40;7.20;;;;;;;7.89;80.54;96910.11;104534;1280;74606;-26
2022/04/01 10:40:43;;;;;;;20.50;11.00;;;;;;;8.11;78.74;96912.04;104616;1277;61400;-27
2022/04/01 10:43:15;;;;;;;10.10;4.90;;;;;;;7.59;81.75;96906.46;104525;1280;61071;-25
2022/04/01 10:46:15;;;;;;;7.60;2.80;;;;;;;7.51;81.46;96900.48;104665;1277;75323;-26
2022/04/01 10:52:17;;;;;;;8.20;4.30;;;;;;;7.61;81.33;96907.84;104411;1278;73201;-25
2022/04/01 10:55:02;;;;;;;24.90;13.70;;;;;;;7.18;83.32;96906.88;104638;1277;61151;-26
2022/04/01 10:57:50;;;;;;;26.10;16.70;;;;;;;7.59;82.55;96910.80;104533;1278;63584;-25
2022/04/01 11:00:21;;;;;;;18.80;10.60;;;;;;;6.87;84.31;96904.18;104619;1277;75546;-25
2022/04/01 11:03:23;;;;;;;17.60;11.30;;;;;;;7.19;84.02;96912.73;104596;1277;75707;-26
2022/04/01 11:06:25;;;;;;;47.70;41.70;;;;;;;7.52;81.99;96915.45;104444;1277;74321;-26
2022/04/01 11:08:58;;;;;;;;;;;;;;;7.59;81.85;96912.48;104530;1271;61047;-26
2022/04/01 11:11:35;;;;;;;8.70;4.20;;;;;;;7.44;81.50;96916.95;105149;1271;61750;-26
2022/04/01 11:14:06;;;;;;;4.80;2.80;;;;;;;7.22;82.63;96926.59;105147;1271;75787;-26
2022/04/01 11:16:45;;;;;;;9.90;4.50;;;;;;;7.02;83.28;96925.34;104985;1271;75817;-26
2022/04/01 11:19:32;;;;;;;13.80;8.10;;;;;;;7.68;82.30;96916.44;104801;1271;71492;-26
2022/04/01 11:22:37;;;;;;;8.30;4.50;;;;;;;8.18;79.54;96911.90;105110;1271;61057;-26
2022/04/01 11:25:12;;;;;;;15.50;7.40;;;;;;;8.23;79.31;96910.02;105114;1274;62250;-26
2022/04/01 11:27:49;;;;;;;10.10;6.60;;;;;;;7.90;80.69;96909.52;105117;1271;73649;-28
2022/04/01 11:30:28;;;;;;;9.00;5.10;;;;;;;7.53;82.08;96910.02;105041;1274;74546;-26
2022/04/01 11:33:15;;;;;;;8.30;5.50;;;;;;;7.78;81.55;96919.06;105124;1274;71473;-26
2022/04/01 11:35:55;;;;;;;9.00;5.30;;;;;;;8.22;80.16;96913.95;105104;1272;61843;-26
2022/04/01 11:38:45;;;;;;;24.50;21.00;;;;;;;7.88;80.65;96908.11;105115;1271;61778;-26
2022/04/01 11:41:28;;;;;;;28.40;23.40;;;;;;;7.58;82.20;96895.56;104452;1278;74475;-27
2022/04/01 11:43:57;;;;;;;13.90;9.40;;;;;;;7.09;83.84;96892.40;104724;1278;76222;-27
2022/04/01 11:46:27;;;;;;;22.90;12.00;;;;;;;7.16;83.65;96887.05;104690;1277;75994;-26
2022/04/01 11:49:13;;;;;;;41.40;23.40;;;;;;;6.70;85.33;96889.36;104612;1276;63535;-26
2022/04/01 11:51:43;;;;;;;23.40;11.00;;;;;;;6.93;85.08;96895.72;104696;1277;61034;-27
2022/04/01 11:54:13;;;;;;;22.70;11.20;;;;;;;7.25;83.95;96899.61;104716;1277;75397;-27
2022/04/01 11:56:46;;;;;;;23.00;11.80;;;;;;;7.03;84.43;96898.17;104410;1281;76925;-27
2022/04/01 11:59:15;;;;;;;29.50;14.90;;;;;;;7.03;85.11;96901.05;104656;1278;73397;-27
2022/04/01 12:01:54;;;;;;;17.20;9.70;;;;;;;6.91;85.21;96897.25;104605;1277;62719;-28
2022/04/01 12:04:32;;;;;;;22.70;16.30;;;;;;;6.94;84.66;96899.18;104599;1277;61800;-27
2022/04/01 12:10:01;;;;;;;22.10;12.10;;;;;;;6.51;86.65;96899.86;104612;1278;75857;-27
2022/04/01 12:12:31;;;;;;;25.70;14.00;;;;;;;6.40;87.65;96899.84;104857;1271;74382;-27
2022/04/01 12:15:00;;;;;;;15.30;7.70;;;;;;;6.85;86.54;96895.60;104959;1271;62816;-27
2022/04/01 12:17:30;;;;;;;23.60;12.30;;;;;;;7.02;84.76;96893.65;105109;1271;62112;-27
2022/04/01 12:20:10;;;;;;;26.30;13.00;;;;;;;7.12;84.54;96894.27;105083;1271;75232;-27
2022/04/01 12:23:00;;;;;;;22.20;11.90;;;;;;;6.95;84.76;96900.53;105097;1272;73706;-27
2022/04/01 12:25:32;;;;;;;30.80;20.40;;;;;;;7.20;84.16;96898.83;105101;1271;74475;-27
2022/04/01 12:28:07;;;;;;;61.60;43.30;;;;;;;6.81;85.52;96892.45;105014;1272;61112;-27
2022/04/01 12:30:45;;;;;;;16.90;8.80;;;;;;;6.85;85.45;96895.26;105113;1273;61059;-27
2022/04/01 12:33:25;;;;;;;24.70;16.80;;;;;;;7.03;84.26;96895.91;105007;1272;74301;-27
2022/04/01 12:36:08;;;;;;;10.60;5.10;;;;;;;7.53;81.88;96898.84;105105;1271;74410;-27
2022/04/01 12:38:40;;;;;;;7.50;4.70;;;;;;;7.68;81.45;96902.15;105092;1274;74543;-27
2022/04/01 12:41:18;;;;;;;9.90;5.10;;;;;;;7.69;80.58;96902.90;105124;1272;61128;-27
2022/04/01 12:43:49;;;;;;;8.90;5.00;;;;;;;7.04;83.35;96901.52;105040;1271;62326;-26
2022/04/01 12:46:19;;;;;;;9.40;5.20;;;;;;;7.12;83.63;96903.29;105118;1272;74523;-27
2022/04/01 12:48:52;;;;;;;18.20;10.90;;;;;;;7.27;83.48;96892.93;105011;1271;76040;-25
2022/04/01 12:51:21;;;;;;;18.80;11.60;;;;;;;7.78;81.58;96888.34;105080;1271;74377;-26
2022/04/01 12:53:56;;;;;;;9.90;5.50;;;;;;;7.75;81.32;96886.81;104851;1272;62107;-26
2022/04/01 12:56:29;;;;;;;30.00;20.90;;;;;;;7.27;82.56;96880.53;104898;1271;61074;-26
2022/04/01 12:59:00;;;;;;;14.10;7.80;;;;;;;7.24;83.26;96882.23;105109;1271;74569;-28
2022/04/01 13:01:31;;;;;;;12.90;9.10;;;;;;;6.82;84.48;96883.88;104867;1274;76069;-26
2022/04/01 13:04:02;;;;;;;24.20;13.80;;;;;;;6.63;85.93;96883.97;104872;1274;74368;-26